RJSH(METAR)
10/20 06:00
METAR RJSH 192100Z 23004KT 9999 SCT030 BKN050 BKN230 07/05 Q1022 RMK
3CU030 6SC050 A3018=
戻る
トップページへ戻る
IMOC Co,.Ltd.